Time;durP1;ratioP1;P1;durP2;ratioP2;P2;SDS_P1;SDS_P2;PMS_P1;PMS_P2;Temp;Humidity;BMP_temperature;BMP_pressure;BME280_temperature;BME280_humidity;BME280_pressure;Samples;Min_cycle;Max_cycle;Signal;HPM_P1;HPM_P2
2022/08/14 00:02:09;;;;;;;;;;;;;;;19.94;nan;101100.28;5032863;28;19929;-65
2022/08/14 00:04:35;;;;;;;;;;;;;;;19.91;nan;101092.47;5032949;28;19913;-65
2022/08/14 00:07:00;;;;;;;;;;;;;;;19.88;nan;101090.00;5032328;28;19917;-66
2022/08/14 00:09:25;;;;;;;;;;;;;;;19.83;nan;101085.00;5033261;28;20000;-66
2022/08/14 00:11:50;;;;;;;;;;;;;;;19.79;nan;101094.16;5033678;28;19924;-65
2022/08/14 00:14:16;;;;;;;;;;;;;;;19.75;nan;101089.13;5033572;28;19924;-65
2022/08/14 00:16:41;;;;;;;;;;;;;;;19.73;nan;101083.03;5032222;28;19924;-66
2022/08/14 00:19:06;;;;;;;;;;;;;;;19.71;nan;101071.59;5033667;28;19913;-66
2022/08/14 00:21:32;;;;;;;;;;;;;;;19.69;nan;101081.53;5033151;28;19921;-65
2022/08/14 00:23:57;;;;;;;;;;;;;;;19.67;nan;101075.44;5033819;28;19924;-66
2022/08/14 00:26:22;;;;;;;;;;;;;;;19.65;nan;101065.69;5033440;28;20318;-66
2022/08/14 00:28:48;;;;;;;;;;;;;;;19.62;nan;101062.38;5031943;28;19913;-66
2022/08/14 00:31:13;;;;;;;;;;;;;;;19.58;nan;101064.38;5033075;28;19963;-68
2022/08/14 00:33:39;;;;;;;;;;;;;;;19.52;nan;101064.81;5033169;28;19963;-66
2022/08/14 00:36:04;;;;;;;;;;;;;;;19.47;nan;101058.91;5033103;28;19921;-65
2022/08/14 00:38:29;;;;;;;;;;;;;;;19.46;nan;101059.00;5033134;28;20023;-66
2022/08/14 00:40:55;;;;;;;;;;;;;;;19.42;nan;101063.69;5033115;28;19963;-65
2022/08/14 00:43:20;;;;;;;;;;;;;;;19.43;nan;101059.22;5033345;28;19917;-65
2022/08/14 00:45:46;;;;;;;;;;;;;;;19.46;nan;101075.03;5031589;28;19936;-66
2022/08/14 00:48:11;;;;;;;;;;;;;;;19.47;nan;101061.56;5015086;28;20253;-66
2022/08/14 00:50:36;;;;;;;;;;;;;;;19.51;nan;101064.91;5032653;28;19927;-64
2022/08/14 00:53:02;;;;;;;;;;;;;;;19.54;nan;101052.22;5032774;28;20303;-65
2022/08/14 00:55:28;;;;;;;;;;;;;;;19.55;nan;101053.06;5031489;28;19913;-64
2022/08/14 01:00:38;;;;;;;;;;;;;;;19.57;nan;101049.34;5032080;28;20264;-66
2022/08/14 01:03:04;;;;;;;;;;;;;;;19.57;nan;101054.69;5032577;28;19917;-66
2022/08/14 01:05:29;;;;;;;;;;;;;;;19.56;nan;101044.94;5032176;28;19952;-65
2022/08/14 01:07:58;;;;;;;;;;;;;;;19.54;nan;101041.53;5014843;28;19923;-64
2022/08/14 01:10:49;;;;;;;;;;;;;;;19.51;nan;101032.84;5032680;28;19971;-65
2022/08/14 01:13:09;;;;;;;;;;;;;;;19.47;nan;101026.00;5032440;28;19913;-65
2022/08/14 01:15:34;;;;;;;;;;;;;;;19.41;nan;101021.09;5031327;28;19963;-65
2022/08/14 01:21:02;;;;;;;;;;;;;;;19.30;nan;101020.88;5032667;28;19929;-64
2022/08/14 01:23:27;;;;;;;;;;;;;;;19.24;nan;101019.47;5031447;28;20011;-64
2022/08/14 01:25:54;;;;;;;;;;;;;;;19.20;nan;101017.97;5032803;28;19987;-64
2022/08/14 01:28:21;;;;;;;;;;;;;;;19.16;nan;101008.44;5032573;28;20376;-64
2022/08/14 01:30:47;;;;;;;;;;;;;;;19.13;nan;101007.78;5031290;28;19913;-63
2022/08/14 01:33:12;;;;;;;;;;;;;;;19.19;nan;101008.25;5032753;28;20349;-64
2022/08/14 01:35:39;;;;;;;;;;;;;;;19.17;nan;101007.50;5036521;28;19956;-65
2022/08/14 01:38:04;;;;;;;;;;;;;;;19.13;nan;101005.97;5036769;28;19923;-64
2022/08/14 01:40:30;;;;;;;;;;;;;;;19.07;nan;101007.25;5037031;28;20298;-64
2022/08/14 01:42:55;;;;;;;;;;;;;;;19.00;nan;100989.91;5036655;28;20031;-67
2022/08/14 01:45:20;;;;;;;;;;;;;;;18.95;nan;100996.50;5036846;28;19913;-64
2022/08/14 01:47:46;;;;;;;;;;;;;;;18.89;nan;100992.41;5036372;28;19917;-65
2022/08/14 01:50:11;;;;;;;;;;;;;;;18.85;nan;100990.91;5036111;28;20020;-65
2022/08/14 01:52:36;;;;;;;;;;;;;;;18.81;nan;100997.38;5035754;28;19925;-65
2022/08/14 01:55:07;;;;;;;;;;;;;;;18.77;nan;100995.00;5036201;28;19913;-65
2022/08/14 01:57:36;;;;;;;;;;;;;;;18.73;nan;100990.84;5035119;28;19913;-64
2022/08/14 02:00:02;;;;;;;;;;;;;;;18.69;nan;100989.31;5018655;28;19913;-65
2022/08/14 02:02:28;;;;;;;;;;;;;;;18.64;nan;100986.94;5036165;28;20438;-64
2022/08/14 02:04:53;;;;;;;;;;;;;;;18.61;nan;100983.59;5034559;28;19980;-65
2022/08/14 02:07:19;;;;;;;;;;;;;;;18.57;nan;100982.06;5034853;28;19913;-64
2022/08/14 02:09:44;;;;;;;;;;;;;;;18.53;nan;100986.78;5036171;28;19971;-64
2022/08/14 02:12:09;;;;;;;;;;;;;;;18.48;nan;100980.81;5035984;28;19917;-64
2022/08/14 02:14:35;;;;;;;;;;;;;;;18.43;nan;100970.47;5034798;28;19913;-65
2022/08/14 02:17:00;;;;;;;;;;;;;;;18.41;nan;100969.72;5034684;28;20341;-65
2022/08/14 02:19:26;;;;;;;;;;;;;;;18.38;nan;100969.91;5035746;28;19917;-63
2022/08/14 02:21:54;;;;;;;;;;;;;;;18.34;nan;100964.84;5035412;28;20426;-64
2022/08/14 02:24:20;;;;;;;;;;;;;;;18.32;nan;100962.28;5035822;28;19913;-65
2022/08/14 02:26:47;;;;;;;;;;;;;;;18.29;nan;100958.94;5035747;28;19917;-64
2022/08/14 02:29:13;;;;;;;;;;;;;;;18.27;nan;100958.19;5034054;28;19966;-65
2022/08/14 02:31:40;;;;;;;;;;;;;;;18.24;nan;100958.38;5035379;28;19913;-65
2022/08/14 02:34:09;;;;;;;;;;;;;;;18.21;nan;100945.25;5033909;28;19931;-65
2022/08/14 02:36:34;;;;;;;;;;;;;;;18.18;nan;100951.63;5035709;28;19917;-63
2022/08/14 02:38:59;;;;;;;;;;;;;;;18.15;nan;100951.81;5035318;28;19967;-64
2022/08/14 02:41:25;;;;;;;;;;;;;;;18.12;nan;100952.00;5034225;28;19971;-65
2022/08/14 02:43:50;;;;;;;;;;;;;;;18.09;nan;100938.00;5035318;28;19917;-65
2022/08/14 02:46:16;;;;;;;;;;;;;;;18.07;nan;100947.91;5035281;28;19917;-66
2022/08/14 02:48:41;;;;;;;;;;;;;;;18.05;nan;100937.34;5035485;28;19960;-67
2022/08/14 02:51:11;;;;;;;;;;;;;;;18.04;nan;100943.59;5035263;28;19978;-68
2022/08/14 02:53:41;;;;;;;;;;;;;;;18.00;nan;100942.09;5017196;28;20004;-64
2022/08/14 02:56:07;;;;;;;;;;;;;;;17.99;nan;100940.38;5035122;28;19913;-67
2022/08/14 02:58:33;;;;;;;;;;;;;;;17.95;nan;100922.88;5035100;28;19920;-66
2022/08/14 03:00:59;;;;;;;;;;;;;;;17.94;nan;100927.34;5033774;28;20364;-65
2022/08/14 03:03:24;;;;;;;;;;;;;;;17.91;nan;100927.53;5034932;28;19992;-65
2022/08/14 03:05:51;;;;;;;;;;;;;;;17.90;nan;100930.28;5033756;28;20364;-65
2022/08/14 03:08:16;;;;;;;;;;;;;;;17.87;nan;100919.81;5033583;28;20418;-64
2022/08/14 03:10:41;;;;;;;;;;;;;;;17.86;nan;100926.13;5033665;28;19952;-65
2022/08/14 03:13:07;;;;;;;;;;;;;;;17.83;nan;100923.63;5034862;28;19923;-66
2022/08/14 03:16:05;;;;;;;;;;;;;;;17.81;nan;100929.03;5033312;28;19917;-64
2022/08/14 03:18:24;;;;;;;;;;;;;;;17.77;nan;100924.88;5033661;28;19921;-64
2022/08/14 03:20:49;;;;;;;;;;;;;;;17.75;nan;100918.75;5034573;28;20380;-64
2022/08/14 03:23:15;;;;;;;;;;;;;;;17.71;nan;100909.28;5032876;28;19913;-64
2022/08/14 03:25:41;;;;;;;;;;;;;;;17.67;nan;100914.84;5034489;28;19926;-64
2022/08/14 03:28:07;;;;;;;;;;;;;;;17.63;nan;100914.16;5034178;28;20011;-64
2022/08/14 03:30:32;;;;;;;;;;;;;;;17.59;nan;100915.31;5034329;28;20011;-64
2022/08/14 03:32:57;;;;;;;;;;;;;;;17.57;nan;100906.56;5033249;28;19959;-64
2022/08/14 03:35:23;;;;;;;;;;;;;;;17.55;nan;100905.81;5034301;28;19971;-65
2022/08/14 03:37:52;;;;;;;;;;;;;;;17.53;nan;100910.34;5034343;28;19960;-64
2022/08/14 03:40:21;;;;;;;;;;;;;;;17.50;nan;100905.19;5033019;28;20371;-64
2022/08/14 03:42:46;;;;;;;;;;;;;;;17.48;nan;100911.56;5034007;28;19924;-64
2022/08/14 03:45:12;;;;;;;;;;;;;;;17.45;nan;100896.63;5034110;28;20280;-64
2022/08/14 03:47:41;;;;;;;;;;;;;;;17.43;nan;100906.50;5033049;28;20028;-65
2022/08/14 03:50:08;;;;;;;;;;;;;;;17.41;nan;100909.25;5033051;28;19909;-64
2022/08/14 03:52:33;;;;;;;;;;;;;;;17.39;nan;100907.66;5034266;28;19917;-64
2022/08/14 03:54:58;;;;;;;;;;;;;;;17.35;nan;100904.31;5033891;28;19940;-65
2022/08/14 03:57:24;;;;;;;;;;;;;;;17.32;nan;100904.47;5033252;28;19924;-65
2022/08/14 03:59:49;;;;;;;;;;;;;;;17.28;nan;100902.94;5033795;28;20383;-66
2022/08/14 04:02:14;;;;;;;;;;;;;;;17.27;nan;100901.25;5033887;28;20379;-66
2022/08/14 04:04:44;;;;;;;;;;;;;;;17.23;nan;100894.38;5034006;28;20299;-65
2022/08/14 04:07:10;;;;;;;;;;;;;;;17.19;nan;100899.97;5035724;28;20376;-64
2022/08/14 04:09:35;;;;;;;;;;;;;;;17.15;nan;100898.44;5033840;28;19917;-66
2022/08/14 04:12:00;;;;;;;;;;;;;;;17.14;nan;100894.06;5033622;28;19913;-65
2022/08/14 04:14:27;;;;;;;;;;;;;;;17.12;nan;100891.50;5033784;28;20438;-64
2022/08/14 04:16:53;;;;;;;;;;;;;;;17.10;nan;100893.41;5032461;28;20360;-64
2022/08/14 04:19:22;;;;;;;;;;;;;;;17.07;nan;100890.91;5033609;28;19919;-64
2022/08/14 04:21:48;;;;;;;;;;;;;;;17.04;nan;100883.13;5033484;28;19921;-64
2022/08/14 04:24:13;;;;;;;;;;;;;;;17.02;nan;100892.09;5033370;28;20388;-66
2022/08/14 04:26:38;;;;;;;;;;;;;;;17.01;nan;100882.44;5033325;28;20012;-65
2022/08/14 04:29:03;;;;;;;;;;;;;;;17.00;nan;100873.59;5033209;28;19917;-65
2022/08/14 04:31:29;;;;;;;;;;;;;;;16.98;nan;100872.84;5033482;28;19913;-65
2022/08/14 04:33:54;;;;;;;;;;;;;;;16.97;nan;100872.91;5033340;28;19924;-65
2022/08/14 04:36:19;;;;;;;;;;;;;;;16.96;nan;100868.56;5031411;28;19924;-65
2022/08/14 04:43:35;;;;;;;;;;;;;;;16.96;nan;100873.88;5032197;28;20024;-63
2022/08/14 04:44:17;;;;;;;;;;;;;;;16.95;nan;100865.03;5032804;28;19913;-65
2022/08/14 04:48:11;;;;;;;;;;;;;;;16.94;nan;100863.31;5032296;28;19917;-64
2022/08/14 04:49:27;;;;;;;;;;;;;;;16.94;nan;100865.97;5032824;28;19912;-64
2022/08/14 04:51:53;;;;;;;;;;;;;;;16.95;nan;100849.09;5032623;28;20430;-65
2022/08/14 04:54:18;;;;;;;;;;;;;;;16.97;nan;100849.84;5032993;28;19928;-65
2022/08/14 04:56:43;;;;;;;;;;;;;;;16.99;nan;100852.44;5032862;28;20004;-64
2022/08/14 04:59:08;;;;;;;;;;;;;;;17.02;nan;100855.75;5048424;28;19913;-65
2022/08/14 05:01:33;;;;;;;;;;;;;;;17.06;nan;100854.63;5032785;28;19913;-66
2022/08/14 05:03:59;;;;;;;;;;;;;;;17.10;nan;100858.81;5032713;28;19950;-68
2022/08/14 05:06:24;;;;;;;;;;;;;;;17.14;nan;100856.81;5032719;28;19971;-65
2022/08/14 05:08:50;;;;;;;;;;;;;;;17.18;nan;100850.38;5031908;28;19917;-65
2022/08/14 05:11:18;;;;;;;;;;;;;;;17.22;nan;100851.94;5032796;28;19923;-66
2022/08/14 05:13:43;;;;;;;;;;;;;;;17.27;nan;100853.34;5047698;28;19913;-64
2022/08/14 05:16:09;;;;;;;;;;;;;;;17.33;nan;100860.13;5031032;28;19944;-64
2022/08/14 05:18:36;;;;;;;;;;;;;;;17.40;nan;100859.63;5032479;28;20383;-65
2022/08/14 05:21:02;;;;;;;;;;;;;;;17.47;nan;100859.28;5034143;28;19971;-65
2022/08/14 05:23:28;;;;;;;;;;;;;;;17.52;nan;100860.69;5032825;28;19921;-64
2022/08/14 05:25:55;;;;;;;;;;;;;;;17.58;nan;100856.84;5031952;28;20455;-65
2022/08/14 05:28:22;;;;;;;;;;;;;;;17.63;nan;100852.94;5047507;28;19921;-64
2022/08/14 05:30:47;;;;;;;;;;;;;;;17.70;nan;100861.44;5032514;28;20459;-65
2022/08/14 05:33:13;;;;;;;;;;;;;;;17.76;nan;100867.22;5032385;28;19913;-65
2022/08/14 05:35:38;;;;;;;;;;;;;;;17.82;nan;100856.22;5032577;28;20261;-64
2022/08/14 05:38:08;;;;;;;;;;;;;;;17.89;nan;100854.03;5032889;28;19917;-67
2022/08/14 05:40:34;;;;;;;;;;;;;;;17.96;nan;100853.53;5033333;28;19956;-65
2022/08/14 05:42:59;;;;;;;;;;;;;;;18.08;nan;100851.06;5032363;28;19944;-64
2022/08/14 05:45:24;;;;;;;;;;;;;;;18.20;nan;100864.47;5047737;28;19914;-65
2022/08/14 05:47:50;;;;;;;;;;;;;;;18.34;nan;100855.56;5032277;28;19963;-65
2022/08/14 05:50:15;;;;;;;;;;;;;;;18.45;nan;100853.06;5032439;28;19963;-65
2022/08/14 05:52:41;;;;;;;;;;;;;;;18.57;nan;100851.44;5032433;28;19921;-64
2022/08/14 05:55:07;;;;;;;;;;;;;;;18.69;nan;100856.00;5032272;28;19925;-64
2022/08/14 05:57:32;;;;;;;;;;;;;;;18.81;nan;100861.38;5032383;28;19917;-65
2022/08/14 05:59:57;;;;;;;;;;;;;;;18.91;nan;100858.97;5022212;28;19924;-64
2022/08/14 06:02:22;;;;;;;;;;;;;;;19.03;nan;100872.31;5012356;28;19925;-64
2022/08/14 06:04:48;;;;;;;;;;;;;;;19.12;nan;100865.50;5012669;28;20008;-65
2022/08/14 06:07:13;;;;;;;;;;;;;;;19.18;nan;100866.91;5012647;28;19925;-65
2022/08/14 06:09:39;;;;;;;;;;;;;;;19.28;nan;100868.00;4995003;28;19913;-65
2022/08/14 06:12:04;;;;;;;;;;;;;;;19.36;nan;100871.00;5012431;28;20408;-64
2022/08/14 06:14:30;;;;;;;;;;;;;;;19.45;nan;100875.75;5011752;28;19945;-64
2022/08/14 06:16:55;;;;;;;;;;;;;;;19.54;nan;100884.00;5012161;28;19964;-64
2022/08/14 06:19:20;;;;;;;;;;;;;;;19.62;nan;100876.31;5011808;28;19913;-64
2022/08/14 06:21:45;;;;;;;;;;;;;;;19.73;nan;100875.56;5014706;28;20365;-64
2022/08/14 06:24:10;;;;;;;;;;;;;;;19.81;nan;100865.22;5015940;28;19929;-65
2022/08/14 06:26:36;;;;;;;;;;;;;;;19.93;nan;100871.50;5015779;28;19976;-64
2022/08/14 06:29:01;;;;;;;;;;;;;;;20.03;nan;100873.41;5016842;28;19917;-65
2022/08/14 06:31:26;;;;;;;;;;;;;;;20.13;nan;100871.81;5022087;28;19999;-66
2022/08/14 06:33:51;;;;;;;;;;;;;;;20.24;nan;100865.69;5029149;28;20019;-64
2022/08/14 06:36:17;;;;;;;;;;;;;;;20.37;nan;100871.03;5043372;28;19927;-65
2022/08/14 06:38:42;;;;;;;;;;;;;;;20.48;nan;100877.31;5036254;28;19947;-64
2022/08/14 06:41:08;;;;;;;;;;;;;;;20.61;nan;100883.44;5043165;28;19971;-64
2022/08/14 06:43:33;;;;;;;;;;;;;;;20.72;nan;100886.19;5054230;28;19913;-64
2022/08/14 06:45:59;;;;;;;;;;;;;;;20.86;nan;100877.16;5050274;28;19962;-65
2022/08/14 06:48:25;;;;;;;;;;;;;;;21.01;nan;100872.50;5034971;28;19925;-63
2022/08/14 06:50:51;;;;;;;;;;;;;;;21.16;nan;100863.34;5041478;28;20015;-65
2022/08/14 06:53:18;;;;;;;;;;;;;;;21.31;nan;100865.69;5041252;28;20107;-65
2022/08/14 06:55:45;;;;;;;;;;;;;;;21.48;nan;100867.06;5042031;28;20082;-65
2022/08/14 06:58:14;;;;;;;;;;;;;;;21.65;nan;100871.13;5033267;28;19924;-65
2022/08/14 07:00:40;;;;;;;;;;;;;;;21.83;nan;100861.66;5052460;28;19924;-64
2022/08/14 07:05:49;;;;;;;;;;;;;;;22.18;nan;100873.13;5048551;28;20387;-63
2022/08/14 07:08:17;;;;;;;;;;;;;;;22.32;nan;100872.91;5034566;28;19913;-63
2022/08/14 07:10:43;;;;;;;;;;;;;;;22.51;nan;100872.25;5035698;28;19923;-63
2022/08/14 07:13:09;;;;;;;;;;;;;;;22.65;nan;100863.94;5033324;28;19925;-63
2022/08/14 07:15:34;;;;;;;;;;;;;;;22.78;nan;100867.34;5035236;28;19975;-63
2022/08/14 07:18:00;;;;;;;;;;;;;;;22.94;nan;100864.25;5039107;28;19925;-61
2022/08/14 07:20:27;;;;;;;;;;;;;;;23.10;nan;100872.69;5054055;28;19920;-60
2022/08/14 07:22:57;;;;;;;;;;;;;;;23.25;nan;100875.94;5049825;28;19921;-60
2022/08/14 07:25:22;;;;;;;;;;;;;;;23.40;nan;100878.22;5042381;28;19928;-60
2022/08/14 07:27:47;;;;;;;;;;;;;;;23.59;nan;100879.31;5033987;28;19975;-60
2022/08/14 07:30:12;;;;;;;;;;;;;;;23.77;nan;100880.41;5042181;28;19928;-59
2022/08/14 07:32:38;;;;;;;;;;;;;;;23.96;nan;100893.97;5035879;28;19919;-60
2022/08/14 07:35:03;;;;;;;;;;;;;;;24.13;nan;100904.13;5036613;28;20004;-61
2022/08/14 07:37:28;;;;;;;;;;;;;;;24.31;nan;100904.34;5034677;28;20291;-59
2022/08/14 07:39:53;;;;;;;;;;;;;;;24.43;nan;100890.63;5032691;28;19920;-60
2022/08/14 07:42:19;;;;;;;;;;;;;;;24.59;nan;100900.91;5043563;28;20344;-60
2022/08/14 07:44:44;;;;;;;;;;;;;;;24.88;nan;100906.38;5053241;28;19917;-60
2022/08/14 07:47:09;;;;;;;;;;;;;;;25.37;nan;100908.09;5044803;28;19924;-60
2022/08/14 07:49:34;;;;;;;;;;;;;;;26.02;nan;100902.75;5031093;28;20331;-60
2022/08/14 07:52:00;;;;;;;;;;;;;;;26.75;nan;100909.97;5032547;28;19928;-60
2022/08/14 07:54:25;;;;;;;;;;;;;;;27.46;nan;100917.31;5033829;28;20027;-59
2022/08/14 07:56:51;;;;;;;;;;;;;;;28.09;nan;100923.38;5033891;28;19917;-60
2022/08/14 07:59:16;;;;;;;;;;;;;;;28.63;nan;100912.13;5033546;28;20414;-60
2022/08/14 08:01:42;;;;;;;;;;;;;;;29.12;nan;100915.84;5032761;28;20344;-60
2022/08/14 08:04:07;;;;;;;;;;;;;;;29.51;nan;100918.75;5032534;28;19913;-60
2022/08/14 08:06:32;;;;;;;;;;;;;;;29.63;nan;100911.16;5033786;28;20007;-61
2022/08/14 08:08:58;;;;;;;;;;;;;;;29.81;nan;100917.25;5032374;28;20003;-60
2022/08/14 08:11:25;;;;;;;;;;;;;;;30.10;nan;100914.81;5033652;28;19928;-62
2022/08/14 08:13:50;;;;;;;;;;;;;;;30.50;nan;100911.16;5032487;28;20016;-60
2022/08/14 08:16:16;;;;;;;;;;;;;;;30.80;nan;100917.63;5032377;28;20008;-61
2022/08/14 08:18:41;;;;;;;;;;;;;;;30.94;nan;100909.56;5033458;28;19913;-61
2022/08/14 08:21:07;;;;;;;;;;;;;;;31.02;nan;100920.44;5033421;28;20011;-59
2022/08/14 08:23:32;;;;;;;;;;;;;;;31.17;nan;100910.44;5033491;28;20019;-61
2022/08/14 08:25:57;;;;;;;;;;;;;;;31.38;nan;100900.78;5033254;28;19924;-60
2022/08/14 08:28:24;;;;;;;;;;;;;;;31.34;nan;100910.31;5033270;28;19921;-60
2022/08/14 08:30:51;;;;;;;;;;;;;;;31.18;nan;100903.13;5033334;28;19921;-60
2022/08/14 08:33:17;;;;;;;;;;;;;;;31.55;nan;100900.47;5033224;28;20391;-61
2022/08/14 08:35:42;;;;;;;;;;;;;;;31.68;nan;100905.28;5032585;28;19983;-61
2022/08/14 08:38:08;;;;;;;;;;;;;;;31.71;nan;100904.94;5033065;28;20380;-60
2022/08/14 08:40:35;;;;;;;;;;;;;;;32.00;nan;100904.13;5032903;28;19909;-61
2022/08/14 08:43:00;;;;;;;;;;;;;;;32.06;nan;100900.69;5026333;28;19921;-61
2022/08/14 08:45:26;;;;;;;;;;;;;;;32.35;nan;100897.94;5033213;28;19923;-60
2022/08/14 08:47:51;;;;;;;;;;;;;;;32.52;nan;100902.16;5032966;28;19917;-62
2022/08/14 08:50:19;;;;;;;;;;;;;;;32.44;nan;100891.38;5032978;28;20337;-61
2022/08/14 08:52:52;;;;;;;;;;;;;;;32.62;nan;100897.31;5031501;28;19921;-62
2022/08/14 08:55:43;;;;;;;;;;;;;;;32.80;nan;100883.25;5032660;28;20371;-62
2022/08/14 08:58:13;;;;;;;;;;;;;;;32.90;nan;100891.94;5028543;28;19913;-60
2022/08/14 09:00:39;;;;;;;;;;;;;;;33.22;nan;100888.75;5031269;28;19913;-61
2022/08/14 09:03:04;;;;;;;;;;;;;;;33.46;nan;100889.38;5032534;28;19913;-61
2022/08/14 09:05:30;;;;;;;;;;;;;;;33.44;nan;100881.41;5032645;28;20431;-60
2022/08/14 09:08:09;;;;;;;;;;;;;;;33.63;nan;100888.94;5032487;28;19913;-58
2022/08/14 09:10:34;;;;;;;;;;;;;;;33.97;nan;100888.16;5031271;28;19920;-61
2022/08/14 09:12:59;;;;;;;;;;;;;;;34.02;nan;100876.59;5032591;28;20299;-61
2022/08/14 09:15:26;;;;;;;;;;;;;;;34.07;nan;100882.31;5031509;28;19995;-61
2022/08/14 09:17:51;;;;;;;;;;;;;;;34.23;nan;100877.41;5031197;28;19920;-60
2022/08/14 09:20:16;;;;;;;;;;;;;;;34.34;nan;100871.38;5031197;28;19913;-61
2022/08/14 09:22:41;;;;;;;;;;;;;;;34.52;nan;100880.91;5032702;28;19917;-61
2022/08/14 09:25:07;;;;;;;;;;;;;;;34.72;nan;100876.38;5030772;28;19913;-61
2022/08/14 09:27:32;;;;;;;;;;;;;;;34.78;nan;100870.09;5035104;28;19920;-63
2022/08/14 09:29:57;;;;;;;;;;;;;;;34.85;nan;100874.50;5049764;28;19913;-62
2022/08/14 09:32:27;;;;;;;;;;;;;;;34.77;nan;100868.38;5050674;28;20015;-61
2022/08/14 09:35:02;;;;;;;;;;;;;;;34.85;nan;100870.97;5039336;28;19917;-61
2022/08/14 09:37:48;;;;;;;;;;;;;;;34.95;nan;100860.44;5031086;28;20011;-61
2022/08/14 09:40:20;;;;;;;;;;;;;;;35.21;nan;100857.78;5029242;28;20364;-60
2022/08/14 09:42:45;;;;;;;;;;;;;;;35.19;nan;100859.03;5030757;28;20272;-61
2022/08/14 09:45:17;;;;;;;;;;;;;;;35.49;nan;100852.09;5032245;28;19913;-62
2022/08/14 09:47:44;;;;;;;;;;;;;;;35.27;nan;100859.69;5032586;28;19915;-61
2022/08/14 09:50:20;;;;;;;;;;;;;;;35.34;nan;100851.47;5031124;28;19959;-62
2022/08/14 09:52:51;;;;;;;;;;;;;;;35.34;nan;100840.53;5032124;28;19928;-61
2022/08/14 09:55:20;;;;;;;;;;;;;;;35.29;nan;100837.59;5034093;28;19919;-59
2022/08/14 09:57:45;;;;;;;;;;;;;;;35.15;nan;100831.25;5036115;28;19960;-61
2022/08/14 10:00:13;;;;;;;;;;;;;;;35.17;nan;100834.63;5034747;28;19948;-61
2022/08/14 10:02:38;;;;;;;;;;;;;;;35.32;nan;100828.97;5035095;28;19913;-63
2022/08/14 10:05:05;;;;;;;;;;;;;;;35.41;nan;100827.66;5035225;28;20411;-62
2022/08/14 10:07:34;;;;;;;;;;;;;;;35.81;nan;100828.50;5035963;28;20015;-61
2022/08/14 10:10:00;;;;;;;;;;;;;;;36.23;nan;100835.34;5035932;28;19963;-61
2022/08/14 10:12:29;;;;;;;;;;;;;;;35.93;nan;100830.34;5035908;28;19912;-61
2022/08/14 10:14:54;;;;;;;;;;;;;;;35.98;nan;100826.97;5036047;28;19960;-60
2022/08/14 10:17:28;;;;;;;;;;;;;;;36.15;nan;100824.63;5035916;28;20335;-61
2022/08/14 10:19:53;;;;;;;;;;;;;;;36.03;nan;100817.09;5034745;28;19959;-62
2022/08/14 10:22:28;;;;;;;;;;;;;;;36.41;nan;100805.31;5035901;28;20380;-62
2022/08/14 10:24:54;;;;;;;;;;;;;;;36.44;nan;100808.47;5035683;28;19913;-61
2022/08/14 10:27:22;;;;;;;;;;;;;;;36.66;nan;100818.06;5036123;28;19935;-61
2022/08/14 10:29:54;;;;;;;;;;;;;;;36.67;nan;100805.22;5035582;28;19925;-62
2022/08/14 10:32:21;;;;;;;;;;;;;;;37.11;nan;100810.63;5035438;28;19920;-61
2022/08/14 10:34:47;;;;;;;;;;;;;;;37.60;nan;100809.78;5035456;28;20276;-61
2022/08/14 10:37:12;;;;;;;;;;;;;;;37.16;nan;100813.53;5035501;28;19983;-62
2022/08/14 10:39:38;;;;;;;;;;;;;;;37.30;nan;100808.81;5035295;28;20004;-63
2022/08/14 10:42:05;;;;;;;;;;;;;;;36.99;nan;100801.44;5034293;28;19913;-61
2022/08/14 10:44:31;;;;;;;;;;;;;;;37.25;nan;100803.13;5035464;28;19947;-62
2022/08/14 10:47:01;;;;;;;;;;;;;;;37.26;nan;100795.72;5035427;28;20016;-63
2022/08/14 10:49:27;;;;;;;;;;;;;;;37.32;nan;100784.69;5035379;28;19913;-62
2022/08/14 10:52:05;;;;;;;;;;;;;;;37.50;nan;100781.19;5033930;28;20257;-62
2022/08/14 10:54:40;;;;;;;;;;;;;;;37.72;nan;100790.66;5034959;28;19962;-61
2022/08/14 10:57:12;;;;;;;;;;;;;;;37.86;nan;100791.38;5033428;28;20377;-62
2022/08/14 10:59:51;;;;;;;;;;;;;;;38.25;nan;100789.00;5034954;28;20035;-63
2022/08/14 11:02:16;;;;;;;;;;;;;;;38.28;nan;100788.53;5034802;28;19914;-60
2022/08/14 11:04:41;;;;;;;;;;;;;;;38.49;nan;100797.38;5034698;28;19920;-64
2022/08/14 11:07:12;;;;;;;;;;;;;;;38.16;nan;100784.03;5033688;28;19921;-61
2022/08/14 11:09:37;;;;;;;;;;;;;;;38.12;nan;100786.41;5033768;28;19913;-62
2022/08/14 11:12:03;;;;;;;;;;;;;;;38.77;nan;100783.81;5034865;28;20019;-63
2022/08/14 11:14:28;;;;;;;;;;;;;;;38.61;nan;100773.50;5034756;28;20361;-61
2022/08/14 11:16:53;;;;;;;;;;;;;;;39.04;nan;100768.59;5033503;28;19917;-61
2022/08/14 11:19:19;;;;;;;;;;;;;;;39.43;nan;100778.13;5035109;28;19925;-61
2022/08/14 11:21:46;;;;;;;;;;;;;;;39.97;nan;100785.16;5034215;28;20335;-62
2022/08/14 11:24:12;;;;;;;;;;;;;;;40.02;nan;100776.97;5031244;28;19925;-61
2022/08/14 11:26:38;;;;;;;;;;;;;;;40.29;nan;100778.13;5014496;28;19961;-62
2022/08/14 11:29:04;;;;;;;;;;;;;;;39.85;nan;100781.56;5013391;28;19959;-65
2022/08/14 11:31:30;;;;;;;;;;;;;;;39.30;nan;100778.34;5013374;28;19921;-62
2022/08/14 11:33:58;;;;;;;;;;;;;;;39.96;nan;100779.91;5013506;28;20032;-63
2022/08/14 11:36:27;;;;;;;;;;;;;;;40.35;nan;100777.16;5015015;28;20016;-62
2022/08/14 11:38:53;;;;;;;;;;;;;;;40.62;nan;100771.91;5013388;28;19914;-63
2022/08/14 11:41:18;;;;;;;;;;;;;;;40.16;nan;100775.66;5013060;28;19913;-62
2022/08/14 11:43:45;;;;;;;;;;;;;;;40.39;nan;100777.50;5012879;28;19913;-65
2022/08/14 11:46:12;;;;;;;;;;;;;;;40.60;nan;100771.31;5023077;28;19928;-63
2022/08/14 11:48:47;;;;;;;;;;;;;;;40.50;nan;100760.06;5033273;28;19917;-64
2022/08/14 11:51:13;;;;;;;;;;;;;;;40.62;nan;100752.56;5032617;28;19925;-62
2022/08/14 11:53:38;;;;;;;;;;;;;;;40.98;nan;100756.84;5033600;28;19943;-62
2022/08/14 11:56:04;;;;;;;;;;;;;;;41.20;nan;100748.59;5032690;28;20364;-64
2022/08/14 11:58:30;;;;;;;;;;;;;;;41.31;nan;100745.75;5034029;28;19913;-64
2022/08/14 12:01:00;;;;;;;;;;;;;;;40.50;nan;100749.03;5034105;28;20016;-63
2022/08/14 12:03:37;;;;;;;;;;;;;;;40.21;nan;100736.31;5034082;28;19913;-62
2022/08/14 12:06:06;;;;;;;;;;;;;;;40.24;nan;100738.59;5033642;28;19928;-63
2022/08/14 12:08:32;;;;;;;;;;;;;;;39.83;nan;100723.97;5033507;28;20272;-62
2022/08/14 12:10:57;;;;;;;;;;;;;;;39.98;nan;100720.66;5033496;28;19959;-63
2022/08/14 12:13:22;;;;;;;;;;;;;;;39.86;nan;100722.63;5032691;28;19932;-64
2022/08/14 12:15:55;;;;;;;;;;;;;;;40.21;nan;100717.00;5030507;28;19913;-64
2022/08/14 12:18:31;;;;;;;;;;;;;;;40.06;nan;100720.28;5032734;28;20368;-65
2022/08/14 12:20:56;;;;;;;;;;;;;;;40.26;nan;100706.91;5033792;28;19921;-63
2022/08/14 12:23:23;;;;;;;;;;;;;;;40.46;nan;100703.69;5010035;28;20020;-63
2022/08/14 12:25:48;;;;;;;;;;;;;;;40.69;nan;100703.56;5032735;28;20415;-64
2022/08/14 12:28:14;;;;;;;;;;;;;;;40.38;nan;100696.66;5033394;28;19916;-66
2022/08/14 12:30:41;;;;;;;;;;;;;;;40.72;nan;100708.59;5033320;28;19943;-63
2022/08/14 12:33:24;;;;;;;;;;;;;;;41.30;nan;100697.13;5033304;28;19917;-63
2022/08/14 12:35:50;;;;;;;;;;;;;;;41.59;nan;100691.47;5032879;28;19913;-62
2022/08/14 12:38:15;;;;;;;;;;;;;;;41.99;nan;100694.75;5031821;28;19920;-61
2022/08/14 12:40:47;;;;;;;;;;;;;;;41.24;nan;100689.84;5032079;28;19913;-62
2022/08/14 12:43:14;;;;;;;;;;;;;;;41.22;nan;100678.22;5033172;28;20026;-63
2022/08/14 12:45:39;;;;;;;;;;;;;;;41.14;nan;100681.41;5031892;28;19956;-62
2022/08/14 12:48:05;;;;;;;;;;;;;;;41.19;nan;100680.66;5032845;28;19917;-62
2022/08/14 12:50:37;;;;;;;;;;;;;;;41.23;nan;100679.88;5032737;28;20375;-63
2022/08/14 12:53:02;;;;;;;;;;;;;;;41.16;nan;100675.66;5031193;28;20022;-61
2022/08/14 12:55:28;;;;;;;;;;;;;;;41.11;nan;100675.56;5032845;28;19948;-62
2022/08/14 12:57:54;;;;;;;;;;;;;;;41.41;nan;100665.81;5032305;28;20015;-62
2022/08/14 13:00:20;;;;;;;;;;;;;;;41.70;nan;100668.38;5031554;28;20003;-62
2022/08/14 13:02:47;;;;;;;;;;;;;;;41.77;nan;100671.81;5032965;28;19948;-63
2022/08/14 13:05:13;;;;;;;;;;;;;;;42.03;nan;100676.56;5032753;28;20031;-63
2022/08/14 13:07:39;;;;;;;;;;;;;;;42.01;nan;100662.97;5031313;28;19920;-63